sensor_id;sensor_type;location;lat;lon;timestamp;P1;durP1;ratioP1;P2;durP2;ratioP2
58774;SDS011;44545;47.480;19.024;2022-11-11T04:10:54;1.42;;;1.33;;
58774;SDS011;44545;47.480;19.024;2022-11-11T04:14:15;3.05;;;2.22;;
58774;SDS011;44545;47.480;19.024;2022-11-11T04:17:54;4.35;;;2.47;;
58774;SDS011;44545;47.480;19.024;2022-11-11T04:21:22;2.75;;;1.02;;
58774;SDS011;44545;47.480;19.024;2022-11-11T04:25:02;8.88;;;3.62;;
58774;SDS011;44545;47.480;19.024;2022-11-11T04:28:42;4.68;;;1.98;;
58774;SDS011;44545;47.480;19.024;2022-11-11T04:32:21;4.32;;;2.67;;
58774;SDS011;44545;47.480;19.024;2022-11-11T04:36:02;3.30;;;2.25;;
58774;SDS011;44545;47.480;19.024;2022-11-11T04:39:23;9.43;;;3.92;;
58774;SDS011;44545;47.480;19.024;2022-11-11T04:43:03;2.47;;;2.30;;
58774;SDS011;44545;47.480;19.024;2022-11-11T04:46:23;3.08;;;2.87;;
58774;SDS011;44545;47.480;19.024;2022-11-11T04:49:44;3.35;;;2.92;;
58774;SDS011;44545;47.480;19.024;2022-11-11T04:53:06;3.75;;;1.92;;
58774;SDS011;44545;47.480;19.024;2022-11-11T04:56:29;3.80;;;2.25;;
58774;SDS011;44545;47.480;19.024;2022-11-11T05:00:09;3.30;;;2.67;;
58774;SDS011;44545;47.480;19.024;2022-11-11T05:03:32;5.37;;;3.78;;
58774;SDS011;44545;47.480;19.024;2022-11-11T05:06:52;2.42;;;1.80;;
58774;SDS011;44545;47.480;19.024;2022-11-11T05:10:32;2.80;;;2.15;;
58774;SDS011;44545;47.480;19.024;2022-11-11T05:13:52;3.12;;;1.52;;
58774;SDS011;44545;47.480;19.024;2022-11-11T05:17:33;4.55;;;2.85;;
58774;SDS011;44545;47.480;19.024;2022-11-11T05:21:17;4.20;;;2.05;;
58774;SDS011;44545;47.480;19.024;2022-11-11T05:24:44;4.72;;;3.12;;
58774;SDS011;44545;47.480;19.024;2022-11-11T05:28:24;4.43;;;3.30;;
58774;SDS011;44545;47.480;19.024;2022-11-11T05:31:45;8.27;;;3.90;;
58774;SDS011;44545;47.480;19.024;2022-11-11T05:35:10;4.28;;;3.00;;
58774;SDS011;44545;47.480;19.024;2022-11-11T05:38:32;2.10;;;1.90;;
58774;SDS011;44545;47.480;19.024;2022-11-11T05:41:52;4.75;;;2.65;;
58774;SDS011;44545;47.480;19.024;2022-11-11T05:45:13;1.85;;;1.67;;
58774;SDS011;44545;47.480;19.024;2022-11-11T05:48:33;4.00;;;1.77;;
58774;SDS011;44545;47.480;19.024;2022-11-11T05:51:54;5.20;;;3.28;;
58774;SDS011;44545;47.480;19.024;2022-11-11T05:55:16;2.50;;;1.80;;
58774;SDS011;44545;47.480;19.024;2022-11-11T05:58:37;4.62;;;2.33;;
58774;SDS011;44545;47.480;19.024;2022-11-11T06:01:57;5.57;;;2.83;;
58774;SDS011;44545;47.480;19.024;2022-11-11T06:05:18;2.55;;;2.37;;
58774;SDS011;44545;47.480;19.024;2022-11-11T06:08:39;2.35;;;2.15;;
58774;SDS011;44545;47.480;19.024;2022-11-11T06:12:00;8.30;;;2.72;;
58774;SDS011;44545;47.480;19.024;2022-11-11T06:15:21;6.40;;;4.15;;
58774;SDS011;44545;47.480;19.024;2022-11-11T06:18:42;10.95;;;4.25;;
58774;SDS011;44545;47.480;19.024;2022-11-11T06:22:03;4.82;;;2.83;;
58774;SDS011;44545;47.480;19.024;2022-11-11T06:25:24;5.85;;;4.95;;
58774;SDS011;44545;47.480;19.024;2022-11-11T06:29:06;15.45;;;3.90;;
58774;SDS011;44545;47.480;19.024;2022-11-11T06:32:27;7.68;;;3.75;;
58774;SDS011;44545;47.480;19.024;2022-11-11T06:35:48;8.38;;;4.43;;
58774;SDS011;44545;47.480;19.024;2022-11-11T06:39:08;5.15;;;4.30;;
58774;SDS011;44545;47.480;19.024;2022-11-11T06:42:29;5.28;;;3.30;;
58774;SDS011;44545;47.480;19.024;2022-11-11T06:45:56;9.52;;;4.78;;
58774;SDS011;44545;47.480;19.024;2022-11-11T06:49:17;8.05;;;3.60;;
58774;SDS011;44545;47.480;19.024;2022-11-11T06:52:37;14.20;;;4.30;;
58774;SDS011;44545;47.480;19.024;2022-11-11T06:55:58;7.15;;;4.62;;
58774;SDS011;44545;47.480;19.024;2022-11-11T06:59:18;5.40;;;3.67;;
58774;SDS011;44545;47.480;19.024;2022-11-11T07:02:39;25.45;;;4.47;;
58774;SDS011;44545;47.480;19.024;2022-11-11T07:06:00;6.55;;;3.70;;
58774;SDS011;44545;47.480;19.024;2022-11-11T07:09:21;2.00;;;1.85;;
58774;SDS011;44545;47.480;19.024;2022-11-11T07:12:45;6.62;;;4.78;;
58774;SDS011;44545;47.480;19.024;2022-11-11T07:16:08;6.93;;;3.83;;
58774;SDS011;44545;47.480;19.024;2022-11-11T07:19:30;26.90;;;3.58;;
58774;SDS011;44545;47.480;19.024;2022-11-11T07:22:50;9.38;;;4.37;;
58774;SDS011;44545;47.480;19.024;2022-11-11T07:26:11;10.77;;;4.32;;
58774;SDS011;44545;47.480;19.024;2022-11-11T07:29:31;6.20;;;4.45;;
58774;SDS011;44545;47.480;19.024;2022-11-11T07:32:52;6.18;;;4.40;;
58774;SDS011;44545;47.480;19.024;2022-11-11T07:36:14;6.32;;;5.35;;
58774;SDS011;44545;47.480;19.024;2022-11-11T07:39:35;6.15;;;3.87;;
58774;SDS011;44545;47.480;19.024;2022-11-11T07:42:55;7.45;;;6.15;;
58774;SDS011;44545;47.480;19.024;2022-11-11T07:46:16;3.72;;;3.17;;
58774;SDS011;44545;47.480;19.024;2022-11-11T07:49:37;6.43;;;3.78;;
58774;SDS011;44545;47.480;19.024;2022-11-11T07:52:58;5.30;;;4.60;;
58774;SDS011;44545;47.480;19.024;2022-11-11T07:56:18;5.72;;;3.87;;
58774;SDS011;44545;47.480;19.024;2022-11-11T07:59:39;6.68;;;3.80;;
58774;SDS011;44545;47.480;19.024;2022-11-11T08:03:01;7.65;;;4.57;;
58774;SDS011;44545;47.480;19.024;2022-11-11T08:06:27;6.10;;;5.15;;
58774;SDS011;44545;47.480;19.024;2022-11-11T08:09:48;32.45;;;4.95;;
58774;SDS011;44545;47.480;19.024;2022-11-11T08:13:10;4.62;;;3.37;;
58774;SDS011;44545;47.480;19.024;2022-11-11T08:16:51;11.52;;;4.65;;
58774;SDS011;44545;47.480;19.024;2022-11-11T08:20:12;6.80;;;5.07;;
58774;SDS011;44545;47.480;19.024;2022-11-11T08:23:33;4.75;;;4.05;;
58774;SDS011;44545;47.480;19.024;2022-11-11T08:27:14;8.23;;;4.72;;
58774;SDS011;44545;47.480;19.024;2022-11-11T08:30:34;9.02;;;5.07;;
58774;SDS011;44545;47.480;19.024;2022-11-11T08:33:55;3.70;;;2.95;;
58774;SDS011;44545;47.480;19.024;2022-11-11T08:37:15;6.82;;;6.12;;
58774;SDS011;44545;47.480;19.024;2022-11-11T08:40:36;7.55;;;5.37;;
58774;SDS011;44545;47.480;19.024;2022-11-11T08:43:56;9.88;;;4.20;;
58774;SDS011;44545;47.480;19.024;2022-11-11T08:47:19;6.03;;;4.32;;
58774;SDS011;44545;47.480;19.024;2022-11-11T08:50:42;12.30;;;5.25;;
58774;SDS011;44545;47.480;19.024;2022-11-11T08:54:03;16.70;;;3.95;;
58774;SDS011;44545;47.480;19.024;2022-11-11T08:57:23;3.67;;;3.17;;
58774;SDS011;44545;47.480;19.024;2022-11-11T09:00:44;11.20;;;5.40;;
58774;SDS011;44545;47.480;19.024;2022-11-11T09:04:04;5.45;;;3.80;;
58774;SDS011;44545;47.480;19.024;2022-11-11T09:07:45;3.60;;;2.87;;
58774;SDS011;44545;47.480;19.024;2022-11-11T09:11:06;6.62;;;3.35;;
58774;SDS011;44545;47.480;19.024;2022-11-11T09:14:26;6.18;;;4.07;;
58774;SDS011;44545;47.480;19.024;2022-11-11T09:17:47;6.62;;;4.47;;
58774;SDS011;44545;47.480;19.024;2022-11-11T09:21:08;8.30;;;5.97;;
58774;SDS011;44545;47.480;19.024;2022-11-11T09:24:29;4.35;;;3.35;;
58774;SDS011;44545;47.480;19.024;2022-11-11T09:27:57;6.00;;;3.20;;
58774;SDS011;44545;47.480;19.024;2022-11-11T09:31:19;5.60;;;3.58;;
58774;SDS011;44545;47.480;19.024;2022-11-11T09:34:59;5.95;;;3.33;;
58774;SDS011;44545;47.480;19.024;2022-11-11T09:38:20;6.12;;;3.20;;
58774;SDS011;44545;47.480;19.024;2022-11-11T09:45:36;5.95;;;3.10;;
58774;SDS011;44545;47.480;19.024;2022-11-11T09:49:14;4.12;;;3.30;;
58774;SDS011;44545;47.480;19.024;2022-11-11T09:56:33;9.85;;;5.10;;
58774;SDS011;44545;47.480;19.024;2022-11-11T09:59:56;12.13;;;6.32;;
58774;SDS011;44545;47.480;19.024;2022-11-11T10:03:21;10.15;;;6.43;;
58774;SDS011;44545;47.480;19.024;2022-11-11T10:06:44;6.85;;;4.65;;
58774;SDS011;44545;47.480;19.024;2022-11-11T10:10:10;5.68;;;3.30;;
58774;SDS011;44545;47.480;19.024;2022-11-11T10:13:37;7.55;;;3.35;;
58774;SDS011;44545;47.480;19.024;2022-11-11T10:17:04;12.02;;;4.62;;
58774;SDS011;44545;47.480;19.024;2022-11-11T10:20:37;8.10;;;5.57;;
58774;SDS011;44545;47.480;19.024;2022-11-11T10:24:05;3.83;;;2.35;;
58774;SDS011;44545;47.480;19.024;2022-11-11T10:27:30;11.32;;;4.75;;
58774;SDS011;44545;47.480;19.024;2022-11-11T10:30:52;9.95;;;5.05;;
58774;SDS011;44545;47.480;19.024;2022-11-11T10:34:15;8.70;;;5.45;;
58774;SDS011;44545;47.480;19.024;2022-11-11T10:37:39;9.05;;;3.75;;
58774;SDS011;44545;47.480;19.024;2022-11-11T10:41:12;7.22;;;4.90;;
58774;SDS011;44545;47.480;19.024;2022-11-11T10:44:38;10.07;;;5.00;;
58774;SDS011;44545;47.480;19.024;2022-11-11T10:48:00;11.43;;;6.15;;
58774;SDS011;44545;47.480;19.024;2022-11-11T10:51:25;9.05;;;5.35;;
58774;SDS011;44545;47.480;19.024;2022-11-11T10:54:58;7.68;;;3.50;;
58774;SDS011;44545;47.480;19.024;2022-11-11T10:58:29;7.53;;;5.05;;
58774;SDS011;44545;47.480;19.024;2022-11-11T11:02:00;8.57;;;5.03;;
58774;SDS011;44545;47.480;19.024;2022-11-11T11:12:37;8.48;;;5.80;;
58774;SDS011;44545;47.480;19.024;2022-11-11T11:16:07;12.00;;;5.55;;
58774;SDS011;44545;47.480;19.024;2022-11-11T11:19:33;9.20;;;6.30;;
58774;SDS011;44545;47.480;19.024;2022-11-11T11:22:54;9.63;;;4.12;;
58774;SDS011;44545;47.480;19.024;2022-11-11T11:26:18;10.55;;;5.62;;
58774;SDS011;44545;47.480;19.024;2022-11-11T11:29:42;11.25;;;4.75;;
58774;SDS011;44545;47.480;19.024;2022-11-11T11:33:05;16.83;;;5.12;;
58774;SDS011;44545;47.480;19.024;2022-11-11T11:36:26;7.50;;;5.47;;
58774;SDS011;44545;47.480;19.024;2022-11-11T11:39:48;10.75;;;5.30;;
58774;SDS011;44545;47.480;19.024;2022-11-11T11:43:26;6.97;;;4.80;;
58774;SDS011;44545;47.480;19.024;2022-11-11T11:50:32;9.13;;;5.57;;
58774;SDS011;44545;47.480;19.024;2022-11-11T11:58:11;8.40;;;4.35;;
58774;SDS011;44545;47.480;19.024;2022-11-11T12:09:57;7.60;;;4.82;;
58774;SDS011;44545;47.480;19.024;2022-11-11T12:13:03;6.72;;;4.95;;
58774;SDS011;44545;47.480;19.024;2022-11-11T12:16:34;13.70;;;4.95;;
58774;SDS011;44545;47.480;19.024;2022-11-11T12:20:09;7.75;;;4.12;;
58774;SDS011;44545;47.480;19.024;2022-11-11T12:34:37;8.23;;;1.30;;
58774;SDS011;44545;47.480;19.024;2022-11-11T12:42:10;1.40;;;0.93;;
58774;SDS011;44545;47.480;19.024;2022-11-11T12:49:52;1.65;;;0.90;;
58774;SDS011;44545;47.480;19.024;2022-11-11T13:00:48;0.85;;;0.57;;
58774;SDS011;44545;47.480;19.024;2022-11-11T13:04:34;0.98;;;0.90;;
58774;SDS011;44545;47.480;19.024;2022-11-11T13:15:17;0.32;;;0.32;;
58774;SDS011;44545;47.480;19.024;2022-11-11T13:18:55;1.45;;;0.80;;
58774;SDS011;44545;47.480;19.024;2022-11-11T13:22:21;1.08;;;0.98;;
58774;SDS011;44545;47.480;19.024;2022-11-11T13:25:50;2.33;;;0.90;;
58774;SDS011;44545;47.480;19.024;2022-11-11T13:33:17;0.90;;;0.65;;
58774;SDS011;44545;47.480;19.024;2022-11-11T13:36:45;0.47;;;0.35;;
58774;SDS011;44545;47.480;19.024;2022-11-11T13:40:21;7.68;;;1.05;;
58774;SDS011;44545;47.480;19.024;2022-11-11T13:43:52;1.92;;;1.58;;
58774;SDS011;44545;47.480;19.024;2022-11-11T13:47:17;6.80;;;2.37;;
58774;SDS011;44545;47.480;19.024;2022-11-11T13:50:40;1.75;;;1.25;;
58774;SDS011;44545;47.480;19.024;2022-11-11T13:54:03;4.55;;;1.48;;
58774;SDS011;44545;47.480;19.024;2022-11-11T13:57:26;1.58;;;0.90;;
58774;SDS011;44545;47.480;19.024;2022-11-11T14:00:58;1.52;;;0.95;;
58774;SDS011;44545;47.480;19.024;2022-11-11T14:04:21;4.37;;;1.27;;
58774;SDS011;44545;47.480;19.024;2022-11-11T14:11:08;0.90;;;0.90;;
58774;SDS011;44545;47.480;19.024;2022-11-11T14:14:53;2.12;;;1.52;;
58774;SDS011;44545;47.480;19.024;2022-11-11T14:21:49;3.35;;;0.65;;
58774;SDS011;44545;47.480;19.024;2022-11-11T14:25:19;0.98;;;0.88;;
58774;SDS011;44545;47.480;19.024;2022-11-11T14:35:54;3.45;;;2.35;;
58774;SDS011;44545;47.480;19.024;2022-11-11T14:47:16;4.93;;;1.60;;
58774;SDS011;44545;47.480;19.024;2022-11-11T14:50:44;2.00;;;1.37;;
58774;SDS011;44545;47.480;19.024;2022-11-11T14:54:05;1.52;;;0.85;;
58774;SDS011;44545;47.480;19.024;2022-11-11T15:04:37;0.30;;;0.30;;
58774;SDS011;44545;47.480;19.024;2022-11-11T15:08:00;1.83;;;1.42;;
58774;SDS011;44545;47.480;19.024;2022-11-11T15:15:11;4.20;;;1.65;;
58774;SDS011;44545;47.480;19.024;2022-11-11T15:18:56;2.12;;;1.75;;
58774;SDS011;44545;47.480;19.024;2022-11-11T15:30:12;5.03;;;2.15;;
58774;SDS011;44545;47.480;19.024;2022-11-11T15:37:21;1.85;;;1.35;;
58774;SDS011;44545;47.480;19.024;2022-11-11T15:40:47;1.55;;;1.45;;
58774;SDS011;44545;47.480;19.024;2022-11-11T15:44:20;0.90;;;0.77;;
58774;SDS011;44545;47.480;19.024;2022-11-11T15:47:44;3.12;;;1.80;;
58774;SDS011;44545;47.480;19.024;2022-11-11T15:54:41;2.42;;;1.73;;
58774;SDS011;44545;47.480;19.024;2022-11-11T15:58:10;3.47;;;1.45;;
58774;SDS011;44545;47.480;19.024;2022-11-11T16:01:33;2.78;;;1.62;;
58774;SDS011;44545;47.480;19.024;2022-11-11T16:04:57;4.12;;;2.05;;
58774;SDS011;44545;47.480;19.024;2022-11-11T16:08:20;2.20;;;1.27;;
58774;SDS011;44545;47.480;19.024;2022-11-11T16:11:41;2.60;;;1.65;;
